sensor_id;sensor_type;location;lat;lon;timestamp;pressure;altitude;pressure_sealevel;temperature;humidity
63708;BME280;67643;-34.198;22.084;2023-02-11T00:11:18;99867.25;;;19.67;58.50
63708;BME280;67643;-34.198;22.084;2023-02-11T00:13:48;99855.86;;;20.87;53.99
63708;BME280;67643;-34.198;22.084;2023-02-11T00:16:19;99848.63;;;21.40;51.59
63708;BME280;67643;-34.198;22.084;2023-02-11T00:18:48;99840.59;;;21.81;50.11
63708;BME280;67643;-34.198;22.084;2023-02-11T00:21:18;99838.77;;;21.99;49.11
63708;BME280;67643;-34.198;22.084;2023-02-11T00:23:47;99836.77;;;22.50;47.93
63708;BME280;67643;-34.198;22.084;2023-02-11T00:26:17;99834.04;;;22.44;47.68
63708;BME280;67643;-34.198;22.084;2023-02-11T00:28:47;99836.14;;;22.70;47.20
63708;BME280;67643;-34.198;22.084;2023-02-11T00:31:17;99823.83;;;22.30;47.34
63708;BME280;67643;-34.198;22.084;2023-02-11T00:33:46;99818.44;;;22.29;47.39
63708;BME280;67643;-34.198;22.084;2023-02-11T00:36:17;99821.90;;;22.31;46.88
63708;BME280;67643;-34.198;22.084;2023-02-11T00:38:47;99818.28;;;22.63;47.01
63708;BME280;67643;-34.198;22.084;2023-02-11T00:41:17;99816.88;;;22.54;47.18
63708;BME280;67643;-34.198;22.084;2023-02-11T00:43:46;99809.10;;;22.32;47.17
63708;BME280;67643;-34.198;22.084;2023-02-11T00:46:15;99804.49;;;22.35;47.16
63708;BME280;67643;-34.198;22.084;2023-02-11T00:48:44;99807.13;;;22.54;46.83
63708;BME280;67643;-34.198;22.084;2023-02-11T00:51:13;99806.64;;;22.78;46.77
63708;BME280;67643;-34.198;22.084;2023-02-11T00:53:42;99805.23;;;22.10;47.13
63708;BME280;67643;-34.198;22.084;2023-02-11T00:56:11;99802.37;;;22.36;47.55
63708;BME280;67643;-34.198;22.084;2023-02-11T00:58:39;99801.95;;;22.12;47.64
63708;BME280;67643;-34.198;22.084;2023-02-11T01:01:07;99798.75;;;22.31;47.30
63708;BME280;67643;-34.198;22.084;2023-02-11T01:03:36;99797.07;;;22.63;47.15
63708;BME280;67643;-34.198;22.084;2023-02-11T01:06:05;99799.59;;;22.17;47.58
63708;BME280;67643;-34.198;22.084;2023-02-11T01:08:33;99797.39;;;22.41;47.64
63708;BME280;67643;-34.198;22.084;2023-02-11T01:11:06;99795.56;;;21.99;47.99
63708;BME280;67643;-34.198;22.084;2023-02-11T01:13:41;99791.04;;;21.85;48.33
63708;BME280;67643;-34.198;22.084;2023-02-11T01:16:10;99798.53;;;21.53;49.40
63708;BME280;67643;-34.198;22.084;2023-02-11T01:18:39;99791.95;;;21.76;48.09
63708;BME280;67643;-34.198;22.084;2023-02-11T01:21:08;99786.79;;;22.41;47.74
63708;BME280;67643;-34.198;22.084;2023-02-11T01:23:36;99783.61;;;22.12;48.23
63708;BME280;67643;-34.198;22.084;2023-02-11T01:26:04;99780.34;;;22.10;48.31
63708;BME280;67643;-34.198;22.084;2023-02-11T01:28:33;99778.32;;;22.15;48.38
63708;BME280;67643;-34.198;22.084;2023-02-11T01:31:03;99777.26;;;22.14;48.31
63708;BME280;67643;-34.198;22.084;2023-02-11T01:33:31;99776.52;;;22.08;48.52
63708;BME280;67643;-34.198;22.084;2023-02-11T01:36:02;99781.21;;;22.23;48.27
63708;BME280;67643;-34.198;22.084;2023-02-11T01:38:31;99784.24;;;22.46;47.91
63708;BME280;67643;-34.198;22.084;2023-02-11T01:41:03;99775.53;;;22.59;48.52
63708;BME280;67643;-34.198;22.084;2023-02-11T01:43:34;99777.99;;;22.23;48.82
63708;BME280;67643;-34.198;22.084;2023-02-11T01:46:17;99773.71;;;21.76;48.85
63708;BME280;67643;-34.198;22.084;2023-02-11T01:49:08;99774.90;;;21.96;48.90
63708;BME280;67643;-34.198;22.084;2023-02-11T08:05:29;99668.51;;;22.73;52.69
63708;BME280;67643;-34.198;22.084;2023-02-11T08:07:58;99663.02;;;23.92;48.44
63708;BME280;67643;-34.198;22.084;2023-02-11T08:10:26;99661.67;;;24.70;46.30
63708;BME280;67643;-34.198;22.084;2023-02-11T08:12:54;99655.88;;;25.60;43.90
63708;BME280;67643;-34.198;22.084;2023-02-11T08:15:23;99655.23;;;25.80;42.84
63708;BME280;67643;-34.198;22.084;2023-02-11T08:17:52;99655.30;;;25.60;42.16
63708;BME280;67643;-34.198;22.084;2023-02-11T08:20:21;99651.50;;;25.49;42.13
63708;BME280;67643;-34.198;22.084;2023-02-11T08:22:49;99646.05;;;25.56;41.39
63708;BME280;67643;-34.198;22.084;2023-02-11T08:25:18;99643.25;;;25.74;40.45
63708;BME280;67643;-34.198;22.084;2023-02-11T08:27:46;99639.11;;;25.85;39.97
63708;BME280;67643;-34.198;22.084;2023-02-11T08:30:14;99635.99;;;25.64;39.84
63708;BME280;67643;-34.198;22.084;2023-02-11T08:32:43;99635.31;;;25.31;40.42
63708;BME280;67643;-34.198;22.084;2023-02-11T08:35:11;99632.62;;;25.27;40.07
63708;BME280;67643;-34.198;22.084;2023-02-11T08:37:40;99631.11;;;24.69;40.87
63708;BME280;67643;-34.198;22.084;2023-02-11T08:40:09;99628.43;;;24.81;40.67
63708;BME280;67643;-34.198;22.084;2023-02-11T08:42:37;99625.90;;;25.36;39.92
63708;BME280;67643;-34.198;22.084;2023-02-11T08:45:06;99619.30;;;25.03;40.06
63708;BME280;67643;-34.198;22.084;2023-02-11T08:47:35;99615.75;;;25.04;39.75
63708;BME280;67643;-34.198;22.084;2023-02-11T08:50:05;99615.08;;;24.08;41.41
63708;BME280;67643;-34.198;22.084;2023-02-11T08:52:33;99608.66;;;24.03;42.06
63708;BME280;67643;-34.198;22.084;2023-02-11T08:55:01;99605.31;;;24.83;41.69
63708;BME280;67643;-34.198;22.084;2023-02-11T08:57:29;99601.62;;;24.15;43.05
63708;BME280;67643;-34.198;22.084;2023-02-11T08:59:57;99597.51;;;23.76;44.38
63708;BME280;67643;-34.198;22.084;2023-02-11T09:02:26;99599.11;;;22.82;45.82
63708;BME280;67643;-34.198;22.084;2023-02-11T09:04:54;99595.73;;;23.29;45.65
63708;BME280;67643;-34.198;22.084;2023-02-11T09:07:24;99594.22;;;23.28;45.64
63708;BME280;67643;-34.198;22.084;2023-02-11T09:09:52;99588.86;;;23.54;45.22
63708;BME280;67643;-34.198;22.084;2023-02-11T09:12:21;99586.95;;;23.64;45.06
63708;BME280;67643;-34.198;22.084;2023-02-11T09:14:49;99586.43;;;23.65;44.61
63708;BME280;67643;-34.198;22.084;2023-02-11T09:17:18;99582.61;;;24.28;43.93
63708;BME280;67643;-34.198;22.084;2023-02-11T09:19:47;99575.05;;;24.11;43.60
63708;BME280;67643;-34.198;22.084;2023-02-11T09:22:15;99568.02;;;25.08;42.44
63708;BME280;67643;-34.198;22.084;2023-02-11T09:24:43;99569.80;;;24.36;43.39
63708;BME280;67643;-34.198;22.084;2023-02-11T09:27:12;99565.74;;;25.08;41.70
63708;BME280;67643;-34.198;22.084;2023-02-11T09:29:40;99564.51;;;24.67;42.02
63708;BME280;67643;-34.198;22.084;2023-02-11T09:32:08;99562.91;;;24.95;41.87
63708;BME280;67643;-34.198;22.084;2023-02-11T09:34:37;99560.76;;;24.61;42.24
63708;BME280;67643;-34.198;22.084;2023-02-11T09:37:05;99556.56;;;24.65;42.57
63708;BME280;67643;-34.198;22.084;2023-02-11T09:39:33;99557.45;;;24.20;43.46
63708;BME280;67643;-34.198;22.084;2023-02-11T09:42:47;99549.93;;;25.10;42.21
63708;BME280;67643;-34.198;22.084;2023-02-11T09:45:21;99542.96;;;25.38;41.79
63708;BME280;67643;-34.198;22.084;2023-02-11T09:47:54;99545.93;;;24.83;42.21
63708;BME280;67643;-34.198;22.084;2023-02-11T09:50:28;99541.69;;;23.98;43.06
63708;BME280;67643;-34.198;22.084;2023-02-11T09:53:01;99542.88;;;25.00;42.36
63708;BME280;67643;-34.198;22.084;2023-02-11T09:55:32;99544.66;;;24.02;44.16
63708;BME280;67643;-34.198;22.084;2023-02-11T09:58:04;99540.75;;;23.62;44.76
63708;BME280;67643;-34.198;22.084;2023-02-11T10:00:39;99529.53;;;24.80;42.87
63708;BME280;67643;-34.198;22.084;2023-02-11T10:03:23;99525.92;;;24.43;43.25
63708;BME280;67643;-34.198;22.084;2023-02-11T10:06:10;99523.00;;;24.96;43.28
63708;BME280;67643;-34.198;22.084;2023-02-11T10:08:50;99525.59;;;23.93;44.19
63708;BME280;67643;-34.198;22.084;2023-02-11T10:11:29;99517.96;;;25.20;42.73
63708;BME280;67643;-34.198;22.084;2023-02-11T10:14:07;99514.00;;;24.97;42.15
63708;BME280;67643;-34.198;22.084;2023-02-11T10:16:49;99513.59;;;24.16;43.97
63708;BME280;67643;-34.198;22.084;2023-02-11T10:19:33;99511.04;;;23.76;44.01
63708;BME280;67643;-34.198;22.084;2023-02-11T10:22:10;99508.64;;;24.31;43.16
63708;BME280;67643;-34.198;22.084;2023-02-11T10:24:46;99510.05;;;24.29;43.57
63708;BME280;67643;-34.198;22.084;2023-02-11T10:27:21;99501.52;;;24.73;42.13
63708;BME280;67643;-34.198;22.084;2023-02-11T10:29:54;99502.44;;;25.54;41.40
63708;BME280;67643;-34.198;22.084;2023-02-11T10:32:31;99494.88;;;25.07;41.46
63708;BME280;67643;-34.198;22.084;2023-02-11T10:35:09;99485.20;;;24.95;41.50
63708;BME280;67643;-34.198;22.084;2023-02-11T10:37:40;99478.82;;;25.19;40.61
63708;BME280;67643;-34.198;22.084;2023-02-11T10:40:13;99477.95;;;24.26;42.16
63708;BME280;67643;-34.198;22.084;2023-02-11T10:42:45;99480.95;;;25.06;41.21
63708;BME280;67643;-34.198;22.084;2023-02-11T10:45:20;99477.15;;;24.00;42.86
63708;BME280;67643;-34.198;22.084;2023-02-11T10:47:50;99478.85;;;24.18;41.67
63708;BME280;67643;-34.198;22.084;2023-02-11T10:50:23;99482.55;;;25.89;40.01
63708;BME280;67643;-34.198;22.084;2023-02-11T10:52:52;99474.44;;;24.80;41.37
63708;BME280;67643;-34.198;22.084;2023-02-11T10:55:22;99475.10;;;26.06;39.85
63708;BME280;67643;-34.198;22.084;2023-02-11T10:57:56;99468.54;;;26.32;39.39
63708;BME280;67643;-34.198;22.084;2023-02-11T11:00:35;99469.04;;;26.77;35.98
63708;BME280;67643;-34.198;22.084;2023-02-11T11:03:16;99469.88;;;25.21;37.46
63708;BME280;67643;-34.198;22.084;2023-02-11T11:05:48;99463.58;;;25.45;37.50
63708;BME280;67643;-34.198;22.084;2023-02-11T11:08:18;99462.36;;;24.95;37.98
63708;BME280;67643;-34.198;22.084;2023-02-11T11:11:02;99469.10;;;25.16;38.41
63708;BME280;67643;-34.198;22.084;2023-02-11T11:13:32;99455.09;;;26.28;37.91
63708;BME280;67643;-34.198;22.084;2023-02-11T11:16:18;99448.41;;;25.72;38.65
63708;BME280;67643;-34.198;22.084;2023-02-11T11:18:48;99438.16;;;26.44;37.34
63708;BME280;67643;-34.198;22.084;2023-02-11T11:21:20;99432.58;;;26.48;36.89
63708;BME280;67643;-34.198;22.084;2023-02-11T11:23:52;99432.09;;;25.82;37.77
63708;BME280;67643;-34.198;22.084;2023-02-11T11:26:23;99423.99;;;26.69;36.36
63708;BME280;67643;-34.198;22.084;2023-02-11T11:28:57;99420.88;;;27.10;34.72
63708;BME280;67643;-34.198;22.084;2023-02-11T11:31:30;99419.03;;;27.12;34.33
63708;BME280;67643;-34.198;22.084;2023-02-11T11:34:01;99418.18;;;26.49;35.41
63708;BME280;67643;-34.198;22.084;2023-02-11T11:36:37;99409.82;;;25.66;37.34
63708;BME280;67643;-34.198;22.084;2023-02-11T11:39:20;99407.72;;;26.39;36.65
63708;BME280;67643;-34.198;22.084;2023-02-11T11:41:53;99405.35;;;26.03;36.29
63708;BME280;67643;-34.198;22.084;2023-02-11T11:44:27;99406.79;;;24.99;39.36
63708;BME280;67643;-34.198;22.084;2023-02-11T11:47:38;99397.05;;;26.79;36.42
63708;BME280;67643;-34.198;22.084;2023-02-11T11:50:21;99394.56;;;26.63;36.90
63708;BME280;67643;-34.198;22.084;2023-02-11T11:52:58;99391.10;;;27.10;36.30
63708;BME280;67643;-34.198;22.084;2023-02-11T11:55:33;99383.09;;;26.84;37.52
63708;BME280;67643;-34.198;22.084;2023-02-11T11:58:05;99380.81;;;27.14;36.67
63708;BME280;67643;-34.198;22.084;2023-02-11T12:00:47;99384.44;;;26.61;37.02
63708;BME280;67643;-34.198;22.084;2023-02-11T12:03:45;99379.27;;;26.97;37.09
63708;BME280;67643;-34.198;22.084;2023-02-11T12:06:31;99375.29;;;25.81;38.79
63708;BME280;67643;-34.198;22.084;2023-02-11T12:09:11;99370.28;;;26.58;38.08
63708;BME280;67643;-34.198;22.084;2023-02-11T12:11:57;99371.29;;;26.69;38.67
63708;BME280;67643;-34.198;22.084;2023-02-11T12:14:37;99368.29;;;27.04;38.17
63708;BME280;67643;-34.198;22.084;2023-02-11T12:17:22;99363.34;;;26.80;38.76
63708;BME280;67643;-34.198;22.084;2023-02-11T12:20:03;99358.74;;;26.75;38.86
63708;BME280;67643;-34.198;22.084;2023-02-11T12:22:43;99358.67;;;27.09;39.05
63708;BME280;67643;-34.198;22.084;2023-02-11T12:25:26;99357.98;;;26.82;39.33
63708;BME280;67643;-34.198;22.084;2023-02-11T12:28:04;99349.11;;;27.72;38.53
63708;BME280;67643;-34.198;22.084;2023-02-11T12:30:53;99340.61;;;27.06;39.40
63708;BME280;67643;-34.198;22.084;2023-02-11T12:33:36;99334.96;;;27.68;38.43
63708;BME280;67643;-34.198;22.084;2023-02-11T12:36:13;99324.54;;;27.30;38.96
63708;BME280;67643;-34.198;22.084;2023-02-11T12:38:53;99332.02;;;27.04;39.19
63708;BME280;67643;-34.198;22.084;2023-02-11T12:41:38;99343.09;;;26.67;39.97
63708;BME280;67643;-34.198;22.084;2023-02-11T12:44:15;99335.67;;;27.86;38.00
63708;BME280;67643;-34.198;22.084;2023-02-11T12:46:54;99339.40;;;26.03;39.95
63708;BME280;67643;-34.198;22.084;2023-02-11T12:49:41;99333.65;;;27.12;38.96
63708;BME280;67643;-34.198;22.084;2023-02-11T12:52:26;99335.01;;;27.06;38.83
63708;BME280;67643;-34.198;22.084;2023-02-11T12:55:03;99334.21;;;27.04;39.15
63708;BME280;67643;-34.198;22.084;2023-02-11T12:57:36;99333.32;;;26.23;40.45
63708;BME280;67643;-34.198;22.084;2023-02-11T13:00:14;99326.04;;;26.30;40.01
63708;BME280;67643;-34.198;22.084;2023-02-11T13:02:49;99325.53;;;26.60;39.45
63708;BME280;67643;-34.198;22.084;2023-02-11T13:05:26;99321.58;;;27.38;38.11
63708;BME280;67643;-34.198;22.084;2023-02-11T13:08:00;99317.67;;;28.00;37.38
63708;BME280;67643;-34.198;22.084;2023-02-11T13:10:33;99315.23;;;27.35;37.89
63708;BME280;67643;-34.198;22.084;2023-02-11T13:13:09;99313.51;;;28.73;36.37
63708;BME280;67643;-34.198;22.084;2023-02-11T13:15:43;99312.25;;;28.21;37.22
63708;BME280;67643;-34.198;22.084;2023-02-11T13:18:21;99304.39;;;27.75;37.63
63708;BME280;67643;-34.198;22.084;2023-02-11T13:20:58;99301.55;;;27.55;38.47
63708;BME280;67643;-34.198;22.084;2023-02-11T13:23:38;99300.50;;;27.77;38.43
63708;BME280;67643;-34.198;22.084;2023-02-11T13:26:15;99299.59;;;27.84;38.78
63708;BME280;67643;-34.198;22.084;2023-02-11T13:28:51;99296.20;;;27.10;39.44
63708;BME280;67643;-34.198;22.084;2023-02-11T13:31:21;99286.96;;;27.73;38.92
63708;BME280;67643;-34.198;22.084;2023-02-11T13:33:50;99295.49;;;28.72;37.65
63708;BME280;67643;-34.198;22.084;2023-02-11T13:36:23;99296.30;;;28.08;38.63
63708;BME280;67643;-34.198;22.084;2023-02-11T13:38:57;99299.10;;;27.81;37.96
63708;BME280;67643;-34.198;22.084;2023-02-11T13:41:30;99292.99;;;27.53;39.00
63708;BME280;67643;-34.198;22.084;2023-02-11T13:44:20;99290.71;;;27.25;39.35
63708;BME280;67643;-34.198;22.084;2023-02-11T13:46:53;99287.28;;;28.01;38.38
63708;BME280;67643;-34.198;22.084;2023-02-11T13:49:26;99286.57;;;28.17;38.04
63708;BME280;67643;-34.198;22.084;2023-02-11T13:51:56;99286.93;;;28.86;36.86
63708;BME280;67643;-34.198;22.084;2023-02-11T13:54:29;99284.40;;;29.51;35.80
63708;BME280;67643;-34.198;22.084;2023-02-11T13:57:33;99279.51;;;28.25;37.06
63708;BME280;67643;-34.198;22.084;2023-02-11T16:04:26;99206.18;;;24.55;49.05
63708;BME280;67643;-34.198;22.084;2023-02-11T16:06:55;99207.80;;;26.16;45.15
63708;BME280;67643;-34.198;22.084;2023-02-11T16:09:30;99214.19;;;26.50;43.60
63708;BME280;67643;-34.198;22.084;2023-02-11T16:12:00;99222.15;;;26.90;42.54
63708;BME280;67643;-34.198;22.084;2023-02-11T16:14:33;99217.38;;;27.39;42.12
63708;BME280;67643;-34.198;22.084;2023-02-11T16:17:04;99227.60;;;27.30;41.41
63708;BME280;67643;-34.198;22.084;2023-02-11T16:19:35;99233.43;;;27.17;41.19
63708;BME280;67643;-34.198;22.084;2023-02-11T16:22:14;99236.98;;;27.83;40.49
63708;BME280;67643;-34.198;22.084;2023-02-11T16:24:46;99237.80;;;27.62;40.71
63708;BME280;67643;-34.198;22.084;2023-02-11T16:27:21;99239.28;;;27.14;40.70
63708;BME280;67643;-34.198;22.084;2023-02-11T16:29:51;99244.02;;;27.45;40.57
63708;BME280;67643;-34.198;22.084;2023-02-11T16:32:22;99247.17;;;27.65;40.64
63708;BME280;67643;-34.198;22.084;2023-02-11T16:34:52;99246.88;;;27.44;40.57
63708;BME280;67643;-34.198;22.084;2023-02-11T16:37:21;99244.34;;;27.68;40.51
63708;BME280;67643;-34.198;22.084;2023-02-11T16:39:52;99241.61;;;27.74;40.36
63708;BME280;67643;-34.198;22.084;2023-02-11T16:42:20;99245.15;;;27.51;40.26
63708;BME280;67643;-34.198;22.084;2023-02-11T16:44:49;99251.59;;;27.87;40.11
63708;BME280;67643;-34.198;22.084;2023-02-11T16:47:22;99255.22;;;27.62;40.10
63708;BME280;67643;-34.198;22.084;2023-02-11T16:49:51;99250.57;;;27.81;40.11
63708;BME280;67643;-34.198;22.084;2023-02-11T16:52:21;99253.60;;;27.41;40.25
63708;BME280;67643;-34.198;22.084;2023-02-11T16:54:50;99250.35;;;27.52;40.11
63708;BME280;67643;-34.198;22.084;2023-02-11T16:57:21;99249.58;;;27.54;40.04
63708;BME280;67643;-34.198;22.084;2023-02-11T16:59:50;99244.70;;;27.73;40.20
63708;BME280;67643;-34.198;22.084;2023-02-11T17:02:21;99239.12;;;27.26;40.51
63708;BME280;67643;-34.198;22.084;2023-02-11T17:04:52;99234.26;;;27.50;40.45
63708;BME280;67643;-34.198;22.084;2023-02-11T17:07:21;99234.62;;;27.61;40.36
63708;BME280;67643;-34.198;22.084;2023-02-11T17:09:50;99231.79;;;27.68;40.52
63708;BME280;67643;-34.198;22.084;2023-02-11T17:12:18;99239.41;;;27.05;41.08
63708;BME280;67643;-34.198;22.084;2023-02-11T17:14:47;99242.18;;;27.04;41.45
63708;BME280;67643;-34.198;22.084;2023-02-11T17:17:16;99233.87;;;26.66;41.66
63708;BME280;67643;-34.198;22.084;2023-02-11T17:19:44;99222.89;;;26.91;42.04
63708;BME280;67643;-34.198;22.084;2023-02-11T17:22:13;99215.85;;;26.94;41.39
63708;BME280;67643;-34.198;22.084;2023-02-11T17:24:41;99211.78;;;27.38;41.32
63708;BME280;67643;-34.198;22.084;2023-02-11T17:27:11;99206.55;;;27.09;41.14
63708;BME280;67643;-34.198;22.084;2023-02-11T17:29:40;99199.82;;;27.21;41.03
63708;BME280;67643;-34.198;22.084;2023-02-11T17:32:09;99198.09;;;27.34;40.87
63708;BME280;67643;-34.198;22.084;2023-02-11T17:34:38;99198.24;;;26.97;40.99
63708;BME280;67643;-34.198;22.084;2023-02-11T17:37:06;99201.85;;;26.74;41.41
63708;BME280;67643;-34.198;22.084;2023-02-11T17:39:35;99204.87;;;26.65;41.42
63708;BME280;67643;-34.198;22.084;2023-02-11T17:42:03;99209.28;;;26.65;41.10
63708;BME280;67643;-34.198;22.084;2023-02-11T17:44:32;99215.58;;;26.89;41.03
63708;BME280;67643;-34.198;22.084;2023-02-11T17:47:01;99215.30;;;27.09;40.45
63708;BME280;67643;-34.198;22.084;2023-02-11T17:49:29;99218.61;;;27.35;40.02
63708;BME280;67643;-34.198;22.084;2023-02-11T17:51:57;99223.59;;;26.76;41.12
63708;BME280;67643;-34.198;22.084;2023-02-11T17:54:26;99226.52;;;26.21;41.29
63708;BME280;67643;-34.198;22.084;2023-02-11T17:56:54;99234.87;;;26.72;40.40
63708;BME280;67643;-34.198;22.084;2023-02-11T17:59:23;99248.88;;;26.65;40.90
63708;BME280;67643;-34.198;22.084;2023-02-11T18:01:51;99241.30;;;26.71;40.78
63708;BME280;67643;-34.198;22.084;2023-02-11T18:04:20;99228.91;;;26.59;40.99
63708;BME280;67643;-34.198;22.084;2023-02-11T18:06:49;99232.26;;;27.45;39.60
63708;BME280;67643;-34.198;22.084;2023-02-11T18:09:18;99255.83;;;26.47;41.29
63708;BME280;67643;-34.198;22.084;2023-02-11T18:11:46;99257.43;;;25.84;42.31
63708;BME280;67643;-34.198;22.084;2023-02-11T18:14:15;99255.07;;;25.68;42.48
63708;BME280;67643;-34.198;22.084;2023-02-11T18:16:44;99264.29;;;25.81;42.64
63708;BME280;67643;-34.198;22.084;2023-02-11T18:19:14;99272.56;;;25.79;42.65
63708;BME280;67643;-34.198;22.084;2023-02-11T18:21:42;99276.70;;;26.07;41.89
63708;BME280;67643;-34.198;22.084;2023-02-11T18:24:12;99284.14;;;26.14;42.18
63708;BME280;67643;-34.198;22.084;2023-02-11T18:26:42;99290.76;;;26.12;42.18
63708;BME280;67643;-34.198;22.084;2023-02-11T18:29:14;99289.14;;;25.83;42.34
63708;BME280;67643;-34.198;22.084;2023-02-11T18:31:43;99287.11;;;25.72;42.50
63708;BME280;67643;-34.198;22.084;2023-02-11T18:34:12;99283.74;;;25.81;41.84
63708;BME280;67643;-34.198;22.084;2023-02-11T18:36:41;99289.91;;;25.52;42.22
63708;BME280;67643;-34.198;22.084;2023-02-11T18:39:10;99298.65;;;25.62;42.10
63708;BME280;67643;-34.198;22.084;2023-02-11T18:41:40;99302.53;;;25.71;42.38
63708;BME280;67643;-34.198;22.084;2023-02-11T18:44:10;99301.27;;;25.86;42.22
63708;BME280;67643;-34.198;22.084;2023-02-11T18:46:41;99306.72;;;25.86;42.18
63708;BME280;67643;-34.198;22.084;2023-02-11T18:49:11;99307.53;;;25.35;42.60
63708;BME280;67643;-34.198;22.084;2023-02-11T18:51:40;99315.28;;;25.55;42.58
63708;BME280;67643;-34.198;22.084;2023-02-11T18:54:09;99324.16;;;25.76;42.19
63708;BME280;67643;-34.198;22.084;2023-02-11T18:56:39;99327.31;;;25.61;42.42
63708;BME280;67643;-34.198;22.084;2023-02-11T18:59:08;99330.86;;;25.51;42.36
63708;BME280;67643;-34.198;22.084;2023-02-11T19:01:37;99324.86;;;25.38;42.80
63708;BME280;67643;-34.198;22.084;2023-02-11T19:04:07;99315.29;;;25.64;42.22
63708;BME280;67643;-34.198;22.084;2023-02-11T19:06:37;99317.62;;;25.65;42.60
63708;BME280;67643;-34.198;22.084;2023-02-11T19:09:09;99321.08;;;25.39;43.03
63708;BME280;67643;-34.198;22.084;2023-02-11T19:11:39;99326.86;;;25.14;43.10
63708;BME280;67643;-34.198;22.084;2023-02-11T19:14:09;99339.42;;;25.83;42.42
63708;BME280;67643;-34.198;22.084;2023-02-11T19:16:40;99344.53;;;25.60;42.68
63708;BME280;67643;-34.198;22.084;2023-02-11T19:19:10;99352.77;;;25.46;42.93
63708;BME280;67643;-34.198;22.084;2023-02-11T19:21:42;99353.08;;;25.78;42.84
63708;BME280;67643;-34.198;22.084;2023-02-11T19:24:13;99360.31;;;25.49;42.89
63708;BME280;67643;-34.198;22.084;2023-02-11T19:26:43;99360.94;;;25.62;43.06
63708;BME280;67643;-34.198;22.084;2023-02-11T19:29:13;99357.35;;;25.40;43.01
63708;BME280;67643;-34.198;22.084;2023-02-11T19:31:43;99355.32;;;25.70;42.97
63708;BME280;67643;-34.198;22.084;2023-02-11T19:34:16;99355.35;;;25.18;43.31
63708;BME280;67643;-34.198;22.084;2023-02-11T19:36:46;99353.82;;;25.37;43.00
63708;BME280;67643;-34.198;22.084;2023-02-11T19:39:15;99350.76;;;25.08;43.40
63708;BME280;67643;-34.198;22.084;2023-02-11T19:41:44;99348.70;;;25.46;43.17
63708;BME280;67643;-34.198;22.084;2023-02-11T19:44:13;99350.09;;;25.29;42.97
63708;BME280;67643;-34.198;22.084;2023-02-11T19:46:43;99348.32;;;25.05;43.29
63708;BME280;67643;-34.198;22.084;2023-02-11T19:49:14;99354.93;;;25.37;43.19
63708;BME280;67643;-34.198;22.084;2023-02-11T19:51:44;99356.67;;;25.14;43.42
63708;BME280;67643;-34.198;22.084;2023-02-11T19:54:13;99353.93;;;25.40;42.91
63708;BME280;67643;-34.198;22.084;2023-02-11T19:56:42;99357.92;;;25.22;43.13
63708;BME280;67643;-34.198;22.084;2023-02-11T19:59:13;99359.91;;;25.18;43.12
63708;BME280;67643;-34.198;22.084;2023-02-11T20:01:42;99361.77;;;24.95;43.01
63708;BME280;67643;-34.198;22.084;2023-02-11T20:04:12;99360.23;;;25.11;43.11
63708;BME280;67643;-34.198;22.084;2023-02-11T20:06:41;99356.59;;;25.09;43.10
63708;BME280;67643;-34.198;22.084;2023-02-11T20:09:13;99357.72;;;25.13;42.96
63708;BME280;67643;-34.198;22.084;2023-02-11T20:11:42;99361.34;;;25.00;43.04
63708;BME280;67643;-34.198;22.084;2023-02-11T20:14:13;99363.21;;;25.01;43.01
63708;BME280;67643;-34.198;22.084;2023-02-11T20:16:42;99362.03;;;25.29;42.94
63708;BME280;67643;-34.198;22.084;2023-02-11T20:19:11;99356.21;;;25.00;43.02
63708;BME280;67643;-34.198;22.084;2023-02-11T20:21:40;99363.49;;;24.85;43.18
63708;BME280;67643;-34.198;22.084;2023-02-11T20:24:09;99361.10;;;25.08;42.86
63708;BME280;67643;-34.198;22.084;2023-02-11T20:26:38;99358.22;;;25.42;42.67
63708;BME280;67643;-34.198;22.084;2023-02-11T20:29:06;99359.66;;;25.00;42.95
63708;BME280;67643;-34.198;22.084;2023-02-11T20:31:34;99355.98;;;24.86;43.21
63708;BME280;67643;-34.198;22.084;2023-02-11T20:34:03;99360.34;;;24.79;43.24
63708;BME280;67643;-34.198;22.084;2023-02-11T20:36:33;99363.67;;;24.83;43.21
63708;BME280;67643;-34.198;22.084;2023-02-11T20:39:04;99372.05;;;24.85;43.15
63708;BME280;67643;-34.198;22.084;2023-02-11T20:41:34;99378.10;;;25.17;42.99
63708;BME280;67643;-34.198;22.084;2023-02-11T20:44:05;99373.98;;;24.92;42.81
63708;BME280;67643;-34.198;22.084;2023-02-11T20:46:35;99367.33;;;24.65;43.29
63708;BME280;67643;-34.198;22.084;2023-02-11T20:49:04;99367.15;;;25.22;43.07
63708;BME280;67643;-34.198;22.084;2023-02-11T20:51:33;99370.10;;;24.69;43.15
63708;BME280;67643;-34.198;22.084;2023-02-11T20:54:03;99370.78;;;24.74;43.14
63708;BME280;67643;-34.198;22.084;2023-02-11T20:56:34;99372.30;;;24.60;43.64
63708;BME280;67643;-34.198;22.084;2023-02-11T20:59:03;99369.47;;;24.55;43.41
63708;BME280;67643;-34.198;22.084;2023-02-11T21:01:34;99370.13;;;24.66;43.54
63708;BME280;67643;-34.198;22.084;2023-02-11T21:04:05;99369.28;;;24.73;43.48
63708;BME280;67643;-34.198;22.084;2023-02-11T21:06:35;99371.91;;;24.90;43.23
63708;BME280;67643;-34.198;22.084;2023-02-11T21:09:05;99367.73;;;24.47;43.51
63708;BME280;67643;-34.198;22.084;2023-02-11T21:11:35;99364.45;;;24.46;43.85
63708;BME280;67643;-34.198;22.084;2023-02-11T21:14:04;99361.44;;;24.45;43.89
63708;BME280;67643;-34.198;22.084;2023-02-11T21:16:33;99363.19;;;24.60;43.71
63708;BME280;67643;-34.198;22.084;2023-02-11T21:19:02;99360.17;;;24.63;43.63
63708;BME280;67643;-34.198;22.084;2023-02-11T21:21:31;99357.95;;;24.99;43.42
63708;BME280;67643;-34.198;22.084;2023-02-11T21:24:00;99351.73;;;24.20;43.92
63708;BME280;67643;-34.198;22.084;2023-02-11T21:26:28;99346.17;;;24.62;43.92
63708;BME280;67643;-34.198;22.084;2023-02-11T21:28:57;99342.77;;;24.33;43.73
63708;BME280;67643;-34.198;22.084;2023-02-11T21:31:28;99342.22;;;24.44;43.58
63708;BME280;67643;-34.198;22.084;2023-02-11T21:33:57;99345.14;;;24.57;43.74